createdAt,value
2018-09-30T00:01:06.694Z,241.50
2018-09-30T00:03:35.827Z,217.03
2018-09-30T00:06:04.891Z,202.07
2018-09-30T00:08:33.999Z,204.00
2018-09-30T00:11:03.249Z,217.67
2018-09-30T00:13:32.361Z,229.63
2018-09-30T00:16:01.503Z,241.73
2018-09-30T00:18:30.619Z,255.37
2018-09-30T00:20:59.654Z,253.73
2018-09-30T00:23:32.754Z,262.43
2018-09-30T00:26:07.027Z,254.97
2018-09-30T00:28:36.122Z,245.63
2018-09-30T00:31:05.177Z,262.63
2018-09-30T00:33:37.398Z,235.50
2018-09-30T00:36:06.549Z,232.03
2018-09-30T00:38:35.663Z,198.50
2018-09-30T00:41:04.758Z,181.33
2018-09-30T00:43:33.841Z,172.43
2018-09-30T00:46:02.896Z,160.50
2018-09-30T00:48:31.997Z,169.80
2018-09-30T00:51:01.095Z,174.80
2018-09-30T00:53:30.146Z,173.57
2018-09-30T00:55:59.319Z,183.57
2018-09-30T00:58:28.394Z,175.80
2018-09-30T01:00:57.495Z,179.50
2018-09-30T01:03:26.827Z,201.27
2018-09-30T01:05:55.873Z,200.90
2018-09-30T01:08:24.997Z,242.20
2018-09-30T01:10:54.088Z,311.90
2018-09-30T01:13:23.233Z,303.70
2018-09-30T01:15:52.351Z,315.07
2018-09-30T01:18:21.437Z,333.83
2018-09-30T01:20:50.521Z,319.30
2018-09-30T01:23:19.640Z,332.93
2018-09-30T01:25:48.903Z,325.80
2018-09-30T01:28:17.989Z,328.40
2018-09-30T01:30:47.037Z,338.70
2018-09-30T01:33:16.154Z,319.13
2018-09-30T01:35:45.283Z,339.30
2018-09-30T01:38:14.354Z,320.03
2018-09-30T01:40:43.439Z,338.03
2018-09-30T01:43:12.531Z,302.17
2018-09-30T01:45:41.623Z,272.40
2018-09-30T01:48:10.747Z,269.00
2018-09-30T01:50:39.813Z,293.43
2018-09-30T01:53:08.944Z,300.43
2018-09-30T01:55:38.077Z,301.60
2018-09-30T01:58:07.133Z,352.10
2018-09-30T02:00:36.238Z,365.97
2018-09-30T02:03:05.391Z,355.00
2018-09-30T02:05:34.478Z,338.60
2018-09-30T02:08:03.630Z,324.10
2018-09-30T02:10:32.730Z,340.97
2018-09-30T02:13:01.777Z,272.83
2018-09-30T02:15:31.659Z,263.70
2018-09-30T02:18:00.728Z,224.97
2018-09-30T02:20:29.846Z,186.70
2018-09-30T02:22:58.908Z,182.10
2018-09-30T02:25:28.014Z,175.77
2018-09-30T02:27:57.090Z,177.40
2018-09-30T02:30:26.169Z,183.27
2018-09-30T02:32:55.278Z,180.90
2018-09-30T02:35:24.330Z,174.03
2018-09-30T02:37:53.430Z,182.17
2018-09-30T02:40:22.507Z,214.20
2018-09-30T02:42:51.668Z,201.60
2018-09-30T02:45:23.919Z,230.80
2018-09-30T02:47:52.995Z,252.00
2018-09-30T02:50:22.063Z,283.40
2018-09-30T02:52:51.166Z,294.60
2018-09-30T02:55:20.267Z,318.93
2018-09-30T02:57:49.322Z,350.30
2018-09-30T03:00:18.451Z,345.67
2018-09-30T03:02:47.527Z,380.10
2018-09-30T03:05:16.619Z,367.60
2018-09-30T03:07:51.046Z,340.03
2018-09-30T03:10:20.252Z,344.93
2018-09-30T03:12:49.283Z,331.90
2018-09-30T03:15:18.442Z,324.77
2018-09-30T03:17:47.535Z,283.47
2018-09-30T03:20:16.623Z,301.33
2018-09-30T03:22:45.693Z,278.57
2018-09-30T03:25:14.763Z,288.60
2018-09-30T03:27:43.880Z,279.10
2018-09-30T03:30:12.991Z,283.40
2018-09-30T03:32:42.031Z,273.70
2018-09-30T03:35:11.125Z,280.37
2018-09-30T03:37:40.180Z,278.10
2018-09-30T03:40:09.231Z,284.63
2018-09-30T03:42:38.318Z,267.37
2018-09-30T03:45:07.454Z,279.00
2018-09-30T03:47:36.544Z,267.40
2018-09-30T03:50:05.646Z,271.37
2018-09-30T03:52:34.731Z,274.87
2018-09-30T03:55:03.840Z,279.07
2018-09-30T03:57:33.008Z,310.93
2018-09-30T04:00:02.195Z,303.63
2018-09-30T04:02:31.288Z,287.23
2018-09-30T04:05:00.657Z,278.40
2018-09-30T04:07:29.766Z,259.13
2018-09-30T04:09:58.866Z,253.73
2018-09-30T04:12:28.245Z,235.57
2018-09-30T04:14:57.387Z,206.07
2018-09-30T04:17:26.504Z,207.57
2018-09-30T04:19:55.598Z,201.80
2018-09-30T04:22:24.674Z,189.63
2018-09-30T04:24:53.758Z,180.97
2018-09-30T04:27:22.823Z,172.53
2018-09-30T04:29:51.957Z,142.60
2018-09-30T04:32:20.993Z,144.57
2018-09-30T04:34:50.087Z,127.90
2018-09-30T04:37:19.174Z,119.77
2018-09-30T04:39:48.262Z,134.50
2018-09-30T04:42:17.304Z,132.90
2018-09-30T04:44:46.355Z,119.13
2018-09-30T04:47:15.450Z,142.77
2018-09-30T04:49:45.163Z,134.13
2018-09-30T04:52:14.193Z,144.20
2018-09-30T04:54:43.264Z,132.27
2018-09-30T04:57:12.380Z,134.23
2018-09-30T04:59:41.515Z,133.80
2018-09-30T05:02:10.608Z,137.23
2018-09-30T05:04:39.963Z,128.53
2018-09-30T05:07:09.070Z,117.60
2018-09-30T05:09:38.166Z,98.90
2018-09-30T05:12:07.229Z,98.87
2018-09-30T05:14:36.448Z,106.30
2018-09-30T05:17:05.583Z,109.87
2018-09-30T05:19:34.697Z,96.10
2018-09-30T05:22:03.826Z,85.90
2018-09-30T05:24:32.887Z,78.27
2018-09-30T05:27:01.995Z,80.97
2018-09-30T05:29:31.136Z,93.60
2018-09-30T05:32:00.241Z,96.87
2018-09-30T05:34:29.334Z,102.83
2018-09-30T05:36:58.429Z,110.80
2018-09-30T05:39:27.475Z,134.97
2018-09-30T05:41:56.580Z,164.57
2018-09-30T05:44:25.614Z,185.93
2018-09-30T05:46:54.714Z,233.10
2018-09-30T05:49:23.765Z,290.77
2018-09-30T05:51:52.870Z,311.57
2018-09-30T05:54:21.916Z,319.23
2018-09-30T05:56:51.026Z,323.30
2018-09-30T05:59:20.231Z,312.90
2018-09-30T06:01:49.347Z,321.77
2018-09-30T06:04:18.403Z,301.70
2018-09-30T06:06:47.508Z,290.07
2018-09-30T06:09:17.216Z,297.97
2018-09-30T06:11:47.267Z,321.57
2018-09-30T06:14:16.721Z,316.13
2018-09-30T06:16:45.779Z,317.23
2018-09-30T06:19:14.820Z,302.47
2018-09-30T06:21:43.925Z,290.70
2018-09-30T06:24:13.069Z,265.43
2018-09-30T06:26:42.139Z,238.83
2018-09-30T06:29:11.279Z,214.40
2018-09-30T06:31:40.458Z,202.63
2018-09-30T06:34:09.574Z,205.37
2018-09-30T06:36:38.680Z,186.37
2018-09-30T06:39:09.364Z,181.77
2018-09-30T06:41:38.522Z,167.10
2018-09-30T06:44:07.739Z,160.60
2018-09-30T06:46:36.881Z,140.80
2018-09-30T06:49:06.123Z,125.63
2018-09-30T06:51:35.279Z,120.07
2018-09-30T06:54:04.397Z,99.90
2018-09-30T06:56:33.499Z,88.37
2018-09-30T06:59:02.627Z,95.47
2018-09-30T07:01:31.690Z,96.80
2018-09-30T07:04:00.902Z,82.90
2018-09-30T07:06:30.028Z,77.77
2018-09-30T07:08:59.288Z,85.50
2018-09-30T07:11:28.448Z,76.07
2018-09-30T07:13:57.504Z,77.57
2018-09-30T07:16:26.644Z,105.90
2018-09-30T07:18:55.798Z,123.63
2018-09-30T07:21:24.897Z,166.33
2018-09-30T07:23:54.050Z,217.07
2018-09-30T07:28:58.352Z,291.43
2018-09-30T07:31:27.379Z,298.97
2018-09-30T07:33:56.435Z,352.90
2018-09-30T07:36:25.553Z,397.33
2018-09-30T07:38:54.672Z,386.60
2018-09-30T07:41:23.727Z,410.70
2018-09-30T07:43:52.838Z,440.77
2018-09-30T07:46:21.842Z,475.33
2018-09-30T07:48:50.873Z,571.80
2018-09-30T07:51:19.900Z,580.73
2018-09-30T07:53:48.975Z,660.27
2018-09-30T07:56:20.849Z,749.13
2018-09-30T07:58:49.908Z,854.93
2018-09-30T08:01:19.185Z,882.13
2018-09-30T08:03:48.404Z,870.23
2018-09-30T08:06:17.521Z,882.07
2018-09-30T08:08:46.550Z,902.03
2018-09-30T08:11:15.572Z,890.83
2018-09-30T08:13:45.229Z,888.27
2018-09-30T08:16:14.314Z,881.77
2018-09-30T08:18:43.384Z,894.13
2018-09-30T08:21:12.416Z,890.37
2018-09-30T08:23:41.461Z,902.43
2018-09-30T08:26:10.528Z,883.53
2018-09-30T08:28:39.529Z,865.03
2018-09-30T08:31:08.727Z,904.10
2018-09-30T08:33:37.732Z,868.87
2018-09-30T08:36:08.189Z,895.23
2018-09-30T08:38:38.461Z,932.83
2018-09-30T08:41:09.864Z,939.07
2018-09-30T08:43:40.257Z,930.73
2018-09-30T08:46:09.701Z,943.27
2018-09-30T08:48:38.750Z,964.70
2018-09-30T08:51:08.492Z,946.97
2018-09-30T08:53:38.024Z,960.47
2018-09-30T08:56:07.206Z,963.40
2018-09-30T08:58:36.252Z,963.50
2018-09-30T09:01:05.367Z,955.50
2018-09-30T09:03:34.417Z,939.90
2018-09-30T09:06:03.526Z,924.53
2018-09-30T09:08:32.563Z,933.60
2018-09-30T09:11:01.628Z,926.40
2018-09-30T09:13:30.756Z,923.70
2018-09-30T09:15:59.817Z,952.97
2018-09-30T09:18:28.860Z,948.80
2018-09-30T09:20:57.933Z,926.27
2018-09-30T09:23:26.986Z,907.70
2018-09-30T09:25:56.062Z,914.83
2018-09-30T09:28:25.143Z,858.50
2018-09-30T09:30:54.183Z,882.90
2018-09-30T09:33:23.247Z,891.47
2018-09-30T09:35:52.302Z,883.17
2018-09-30T09:38:21.377Z,825.53
2018-09-30T09:40:50.558Z,750.97
2018-09-30T09:43:19.602Z,706.63
2018-09-30T09:45:48.680Z,744.27
2018-09-30T09:48:17.815Z,718.77
2018-09-30T09:50:46.866Z,680.40
2018-09-30T09:53:15.950Z,676.13
2018-09-30T09:55:45.029Z,637.47
2018-09-30T09:58:14.104Z,628.37
2018-09-30T10:00:44.914Z,620.67
2018-09-30T10:03:15.901Z,578.03
2018-09-30T10:05:44.989Z,578.63
2018-09-30T10:08:14.276Z,593.17
2018-09-30T10:10:43.533Z,611.70
2018-09-30T10:13:12.585Z,602.33
2018-09-30T10:15:41.655Z,599.77
2018-09-30T10:18:10.697Z,624.87
2018-09-30T10:20:39.812Z,633.03
2018-09-30T10:23:08.877Z,639.80
2018-09-30T10:25:37.901Z,663.27
2018-09-30T10:28:07.013Z,652.27
2018-09-30T10:30:36.156Z,669.40
2018-09-30T10:33:05.262Z,682.93
2018-09-30T10:35:34.844Z,664.33
2018-09-30T10:38:04.529Z,698.77
2018-09-30T10:40:33.805Z,675.03
2018-09-30T10:43:02.884Z,656.53
2018-09-30T10:45:32.076Z,643.23
2018-09-30T10:48:09.516Z,647.47
2018-09-30T10:50:40.746Z,630.83
2018-09-30T10:53:23.693Z,630.27
2018-09-30T10:58:41.280Z,602.67
2018-09-30T11:01:21.300Z,607.23
2018-09-30T11:06:51.423Z,604.07
2018-09-30T11:09:34.035Z,594.47
2018-09-30T11:12:22.955Z,586.70
2018-09-30T11:14:56.740Z,565.47
2018-09-30T11:20:23.860Z,542.43
2018-09-30T11:23:07.501Z,520.47
2018-09-30T11:25:38.223Z,535.60
2018-09-30T11:28:08.788Z,532.37
2018-09-30T11:30:39.522Z,512.40
2018-09-30T11:33:10.877Z,490.63
2018-09-30T11:35:41.521Z,495.47
2018-09-30T11:38:12.376Z,489.03
2018-09-30T11:40:43.618Z,494.03
2018-09-30T11:43:13.944Z,501.30
2018-09-30T11:45:45.287Z,481.40
2018-09-30T11:48:15.403Z,445.93
2018-09-30T11:50:46.816Z,408.63
2018-09-30T11:53:17.062Z,417.97
2018-09-30T11:55:48.589Z,411.83
2018-09-30T11:58:19.148Z,377.83
2018-09-30T12:00:50.225Z,321.93
2018-09-30T12:03:21.777Z,308.63
2018-09-30T12:05:52.487Z,282.23
2018-09-30T12:08:23.085Z,314.43
2018-09-30T12:10:52.268Z,299.67
2018-09-30T12:13:21.591Z,283.03
2018-09-30T12:15:50.658Z,295.50
2018-09-30T12:18:19.787Z,316.87
2018-09-30T12:20:49.218Z,322.27
2018-09-30T12:23:18.255Z,335.87
2018-09-30T12:25:47.388Z,323.53
2018-09-30T12:28:16.437Z,322.37
2018-09-30T12:30:45.482Z,353.70
2018-09-30T12:33:18.843Z,369.47
2018-09-30T12:35:58.530Z,365.60
2018-09-30T12:38:31.787Z,488.13
2018-09-30T12:41:06.649Z,420.40
2018-09-30T12:43:43.350Z,443.17
2018-09-30T12:46:18.804Z,435.10
2018-09-30T12:48:51.130Z,573.77
2018-09-30T12:51:25.359Z,617.10
2018-09-30T12:53:57.576Z,668.73
2018-09-30T12:56:29.294Z,637.17
2018-09-30T12:59:01.648Z,727.73
2018-09-30T13:01:33.711Z,714.63
2018-09-30T13:04:05.456Z,735.33
2018-09-30T13:06:42.370Z,731.43
2018-09-30T13:09:17.503Z,731.03
2018-09-30T13:11:52.873Z,767.83
2018-09-30T13:14:22.143Z,753.60
2018-09-30T13:16:52.573Z,760.80
2018-09-30T13:19:23.858Z,749.63
2018-09-30T13:21:52.961Z,750.53
2018-09-30T13:24:21.986Z,768.57
2018-09-30T13:26:51.087Z,864.67
2018-09-30T13:29:20.178Z,828.37
2018-09-30T13:31:49.292Z,830.77
2018-09-30T13:34:18.348Z,831.83
2018-09-30T13:36:47.435Z,871.70
2018-09-30T13:39:16.545Z,866.70
2018-09-30T13:41:45.796Z,872.47
2018-09-30T13:44:14.847Z,836.63
2018-09-30T13:46:43.895Z,826.57
2018-09-30T13:49:12.963Z,824.27
2018-09-30T13:51:42.112Z,858.77
2018-09-30T13:54:11.162Z,863.30
2018-09-30T13:56:40.236Z,877.50
2018-09-30T13:59:09.261Z,895.53
2018-09-30T14:01:38.985Z,880.00
2018-09-30T14:04:08.133Z,858.80
2018-09-30T14:06:37.896Z,645.73
2018-09-30T14:09:11.617Z,417.40
2018-09-30T14:11:43.770Z,354.43
2018-09-30T14:14:14.258Z,337.67
2018-09-30T14:16:45.379Z,358.07
2018-09-30T14:19:14.611Z,409.20
2018-09-30T14:21:44.400Z,445.60
2018-09-30T14:24:14.274Z,458.27
2018-09-30T14:26:43.890Z,479.40
2018-09-30T14:29:13.089Z,503.63
2018-09-30T14:31:42.178Z,511.67
2018-09-30T14:34:11.809Z,527.33
2018-09-30T14:36:41.000Z,531.30
2018-09-30T14:39:12.692Z,536.40
2018-09-30T14:41:51.535Z,539.33
2018-09-30T14:44:32.274Z,533.00
2018-09-30T14:47:03.228Z,519.50
2018-09-30T14:49:32.241Z,533.97
2018-09-30T14:52:01.379Z,542.67
2018-09-30T14:54:30.492Z,548.57
2018-09-30T14:57:00.497Z,536.77
2018-09-30T14:59:29.840Z,545.00
2018-09-30T15:01:59.535Z,550.27
2018-09-30T15:04:28.843Z,553.50
2018-09-30T15:06:57.912Z,561.77
2018-09-30T15:09:26.992Z,542.20
2018-09-30T15:11:56.942Z,545.93
2018-09-30T15:14:26.029Z,541.27
2018-09-30T15:16:55.171Z,520.67
2018-09-30T15:19:24.188Z,521.53
2018-09-30T15:21:53.234Z,554.23
2018-09-30T15:24:22.333Z,551.30
2018-09-30T15:26:51.754Z,530.07
2018-09-30T15:29:20.921Z,508.87
2018-09-30T15:31:49.942Z,509.03
2018-09-30T15:34:18.991Z,513.77
2018-09-30T15:36:48.004Z,517.53
2018-09-30T15:39:17.064Z,507.00
2018-09-30T15:41:46.585Z,510.90
2018-09-30T15:44:15.653Z,514.33
2018-09-30T15:46:44.706Z,520.63
2018-09-30T15:49:13.802Z,522.83
2018-09-30T15:51:43.128Z,538.03
2018-09-30T15:54:14.078Z,526.87
2018-09-30T15:56:47.150Z,553.73
2018-09-30T15:59:20.066Z,547.67
2018-09-30T16:01:54.425Z,548.13
2018-09-30T16:04:27.499Z,552.53
2018-09-30T16:06:59.437Z,543.77
2018-09-30T16:09:31.027Z,592.37
2018-09-30T16:12:01.495Z,601.97
2018-09-30T16:14:33.383Z,605.57
2018-09-30T16:17:03.785Z,621.43
2018-09-30T16:19:32.974Z,611.43
2018-09-30T16:22:02.763Z,609.00
2018-09-30T16:24:31.841Z,635.77
2018-09-30T16:27:00.881Z,577.30
2018-09-30T16:29:29.962Z,602.30
2018-09-30T16:31:59.060Z,600.27
2018-09-30T16:34:28.092Z,605.20
2018-09-30T16:36:57.184Z,612.10
2018-09-30T16:39:26.274Z,624.53
2018-09-30T16:41:55.325Z,632.23
2018-09-30T16:44:24.432Z,620.83
2018-09-30T16:46:53.496Z,648.03
2018-09-30T16:49:22.562Z,651.60
2018-09-30T16:51:51.616Z,652.23
2018-09-30T16:54:22.489Z,656.63
2018-09-30T16:56:53.022Z,686.70
2018-09-30T16:59:24.097Z,668.60
2018-09-30T17:01:54.301Z,701.03
2018-09-30T17:04:24.721Z,713.47
2018-09-30T17:06:55.111Z,723.27
2018-09-30T17:09:25.867Z,739.37
2018-09-30T17:11:55.732Z,726.50
2018-09-30T17:14:26.209Z,752.40
2018-09-30T17:16:57.419Z,743.20
2018-09-30T17:19:27.636Z,748.57
2018-09-30T17:21:57.546Z,756.27
2018-09-30T17:24:27.690Z,755.40
2018-09-30T17:26:56.844Z,747.40
2018-09-30T17:29:25.898Z,761.50
2018-09-30T17:31:55.015Z,753.37
2018-09-30T17:34:24.064Z,745.90
2018-09-30T17:36:53.135Z,731.37
2018-09-30T17:39:22.210Z,734.87
2018-09-30T17:41:51.377Z,717.73
2018-09-30T17:44:20.481Z,716.73
2018-09-30T17:46:49.625Z,689.80
2018-09-30T17:49:18.792Z,703.53
2018-09-30T17:51:48.888Z,687.67
2018-09-30T17:54:17.977Z,674.33
2018-09-30T17:56:47.051Z,682.83
2018-09-30T17:59:19.200Z,666.20
2018-09-30T18:01:51.741Z,670.37
2018-09-30T18:04:21.909Z,661.07
2018-09-30T18:06:52.462Z,671.50
2018-09-30T18:09:22.620Z,680.53
2018-09-30T18:11:52.287Z,658.87
2018-09-30T18:14:21.361Z,682.87
2018-09-30T18:16:50.517Z,688.73
2018-09-30T18:19:19.488Z,685.97
2018-09-30T18:21:48.557Z,691.67
2018-09-30T18:24:17.648Z,666.93
2018-09-30T18:26:46.724Z,680.73
2018-09-30T18:29:15.772Z,692.00
2018-09-30T18:31:44.816Z,692.03
2018-09-30T18:34:13.866Z,689.37
2018-09-30T18:36:42.901Z,694.03
2018-09-30T18:39:12.880Z,688.53
2018-09-30T18:41:42.366Z,677.90
2018-09-30T18:44:11.533Z,689.60
2018-09-30T18:46:40.558Z,700.53
2018-09-30T18:49:09.611Z,678.10
2018-09-30T18:51:38.680Z,682.97
2018-09-30T18:54:07.752Z,696.83
2018-09-30T18:56:36.808Z,702.10
2018-09-30T18:59:05.851Z,685.20
2018-09-30T19:01:34.929Z,679.07
2018-09-30T19:04:04.000Z,695.97
2018-09-30T19:06:33.075Z,671.43
2018-09-30T19:09:02.089Z,669.93
2018-09-30T19:11:31.123Z,666.63
2018-09-30T19:14:00.205Z,674.23
2018-09-30T19:16:29.252Z,681.67
2018-09-30T19:18:58.363Z,676.67
2018-09-30T19:21:27.413Z,677.57
2018-09-30T19:23:56.431Z,666.60
2018-09-30T19:26:25.512Z,673.10
2018-09-30T19:28:54.562Z,668.63
2018-09-30T19:31:23.607Z,678.30
2018-09-30T19:33:52.643Z,668.87
2018-09-30T19:36:21.675Z,672.47
2018-09-30T19:38:50.870Z,654.33
2018-09-30T19:41:19.908Z,686.17
2018-09-30T19:43:48.994Z,677.40
2018-09-30T19:46:18.007Z,665.67
2018-09-30T19:48:47.223Z,671.17
2018-09-30T19:51:16.181Z,678.57
2018-09-30T19:53:45.264Z,649.73
2018-09-30T19:56:14.276Z,665.73
2018-09-30T19:58:43.377Z,666.57
2018-09-30T20:01:12.447Z,646.03
2018-09-30T20:03:41.516Z,662.13
2018-09-30T20:06:10.528Z,683.07
2018-09-30T20:08:39.563Z,672.83
2018-09-30T20:11:08.653Z,674.10
2018-09-30T20:13:37.698Z,683.90
2018-09-30T20:16:06.753Z,663.67
2018-09-30T20:18:35.808Z,689.70
2018-09-30T20:21:04.844Z,679.13
2018-09-30T20:23:33.922Z,658.83
2018-09-30T20:26:02.936Z,661.90
2018-09-30T20:28:32.004Z,689.20
2018-09-30T20:31:01.057Z,743.83
2018-09-30T20:33:30.120Z,725.60
2018-09-30T20:35:59.131Z,672.03
2018-09-30T20:38:28.164Z,726.47
2018-09-30T20:40:57.262Z,810.97
2018-09-30T20:43:26.324Z,838.20
2018-09-30T20:45:55.418Z,871.03
2018-09-30T20:48:24.448Z,948.20
2018-09-30T20:50:53.522Z,958.37
2018-09-30T20:53:22.664Z,968.87
2018-09-30T20:55:51.792Z,970.90
2018-09-30T20:58:20.840Z,985.00
2018-09-30T21:00:50.622Z,962.27
2018-09-30T21:03:19.690Z,978.80
2018-09-30T21:06:10.726Z,973.27
2018-09-30T21:08:39.797Z,971.00
2018-09-30T21:11:08.805Z,981.07
2018-09-30T21:13:38.352Z,951.30
2018-09-30T21:16:07.480Z,966.23
2018-09-30T21:18:36.606Z,995.33
2018-09-30T21:21:05.647Z,953.27
2018-09-30T21:23:35.367Z,969.13
2018-09-30T21:26:04.491Z,974.73
2018-09-30T21:28:33.548Z,985.17
2018-09-30T21:31:02.666Z,961.53
2018-09-30T21:33:31.743Z,964.83
2018-09-30T21:36:00.862Z,967.77
2018-09-30T21:38:30.025Z,959.00
2018-09-30T21:40:59.832Z,981.03
2018-09-30T21:43:28.890Z,971.70
2018-09-30T21:45:58.040Z,967.63
2018-09-30T21:48:27.085Z,964.73
2018-09-30T21:50:56.177Z,965.87
2018-09-30T21:53:25.407Z,961.83
2018-09-30T21:55:54.588Z,982.83
2018-09-30T21:58:23.654Z,946.03
2018-09-30T22:00:56.756Z,940.53
2018-09-30T22:03:26.662Z,947.73
2018-09-30T22:05:55.742Z,943.90
2018-09-30T22:08:24.856Z,923.20
2018-09-30T22:10:53.987Z,927.60
2018-09-30T22:13:23.039Z,896.43
2018-09-30T22:15:52.113Z,943.40
2018-09-30T22:18:21.484Z,962.40
2018-09-30T22:20:51.240Z,917.70
2018-09-30T22:23:22.681Z,914.97
2018-09-30T22:25:52.121Z,934.17
2018-09-30T22:28:21.278Z,948.17
2018-09-30T22:30:51.072Z,888.20
2018-09-30T22:33:21.351Z,894.13
2018-09-30T22:35:50.481Z,917.70
2018-09-30T22:38:19.611Z,900.27
2018-09-30T22:40:48.729Z,926.67
2018-09-30T22:43:18.118Z,941.53
2018-09-30T22:45:47.882Z,876.37
2018-09-30T22:48:17.366Z,875.60
2018-09-30T22:50:46.440Z,861.90
2018-09-30T22:53:15.491Z,886.10
2018-09-30T22:55:44.556Z,899.27
2018-09-30T22:58:13.689Z,927.40
2018-09-30T23:00:42.769Z,898.30
2018-09-30T23:03:11.969Z,872.73
2018-09-30T23:05:41.035Z,895.43
2018-09-30T23:08:10.121Z,855.27
2018-09-30T23:10:39.148Z,906.97
2018-09-30T23:13:08.178Z,881.63
2018-09-30T23:15:37.853Z,904.07
2018-09-30T23:18:06.920Z,892.53
2018-09-30T23:20:35.973Z,924.30
2018-09-30T23:23:05.042Z,914.83
2018-09-30T23:25:34.057Z,929.33
2018-09-30T23:28:03.131Z,936.97
2018-09-30T23:30:32.221Z,910.93
2018-09-30T23:33:01.310Z,912.37
2018-09-30T23:35:30.474Z,937.07
2018-09-30T23:37:59.520Z,918.23
2018-09-30T23:40:28.613Z,957.10
2018-09-30T23:42:57.700Z,935.80
2018-09-30T23:45:26.772Z,984.07
2018-09-30T23:47:55.809Z,1007.17
2018-09-30T23:50:24.920Z,971.83
2018-09-30T23:52:53.937Z,1000.00
2018-09-30T23:55:23.016Z,968.17
2018-09-30T23:57:52.147Z,969.87
